Time;durP1;ratioP1;P1;durP2;ratioP2;P2;SDS_P1;SDS_P2;PMS_P1;PMS_P2;Temp;Humidity;BMP_temperature;BMP_pressure;BME280_temperature;BME280_humidity;BME280_pressure;Samples;Min_cycle;Max_cycle;Signal;HPM_P1;HPM_P2
2021/10/16 09:31:59;;;;;;;13.80;9.70;;;35.70;25.60;;;;;;5103969;27;20455;-71
2021/10/16 09:34:33;;;;;;;10.45;9.02;;;35.50;25.60;;;;;;5108310;27;20036;-72
2021/10/16 09:37:20;;;;;;;11.20;8.70;;;35.80;25.30;;;;;;5071435;28;20032;-72
2021/10/16 09:39:48;;;;;;;12.48;8.68;;;36.10;25.00;;;;;;5072671;28;20036;-71
2021/10/16 09:42:18;;;;;;;10.65;8.13;;;36.20;24.90;;;;;;5076249;28;20110;-71
2021/10/16 09:44:47;;;;;;;;;;;35.10;25.70;;;;;;5103949;27;20033;-72
2021/10/16 09:47:18;;;;;;;10.63;8.05;;;33.20;26.30;;;;;;5074623;28;19952;-73
2021/10/16 09:49:49;;;;;;;12.40;8.85;;;31.50;27.80;;;;;;5079488;28;20036;-72
2021/10/16 09:52:19;;;;;;;13.20;9.35;;;30.30;29.60;;;;;;5075945;28;20115;-72
2021/10/16 09:54:48;;;;;;;11.77;9.35;;;29.80;30.10;;;;;;5080792;28;20112;-73
2021/10/16 09:57:19;;;;;;;13.10;10.23;;;31.20;29.70;;;;;;5079296;28;20368;-71
2021/10/16 09:59:45;;;;;;;12.48;9.90;;;32.80;28.20;;;;;;5069097;28;20044;-72
2021/10/16 10:02:12;;;;;;;13.68;9.40;;;34.00;27.30;;;;;;5084217;28;20029;-72
2021/10/16 10:04:40;;;;;;;13.23;9.45;;;35.10;25.80;;;;;;5085596;28;20444;-72
2021/10/16 10:07:07;;;;;;;12.93;9.60;;;36.10;25.10;;;;;;5085792;28;20029;-72
2021/10/16 10:09:34;;;;;;;13.30;8.80;;;36.90;23.90;;;;;;5083895;28;20032;-71
2021/10/16 10:12:01;;;;;;;15.23;8.43;;;37.60;23.10;;;;;;5091952;28;20040;-72
2021/10/16 10:14:28;;;;;;;13.35;8.45;;;37.60;22.30;;;;;;5083034;28;20048;-72
2021/10/16 10:16:59;;;;;;;11.57;8.80;;;37.70;22.40;;;;;;5081300;28;20120;-72
2021/10/16 10:19:27;;;;;;;11.27;9.55;;;38.10;22.00;;;;;;5073385;28;20033;-72
2021/10/16 10:21:53;;;;;;;12.52;9.18;;;38.60;21.90;;;;;;5075851;28;20112;-73
2021/10/16 10:24:19;;;;;;;9.73;8.50;;;39.10;21.70;;;;;;5086202;28;20103;-72
2021/10/16 10:26:46;;;;;;;10.27;8.05;;;39.40;21.00;;;;;;5074781;28;20450;-72
2021/10/16 10:29:22;;;;;;;11.48;8.05;;;39.70;20.50;;;;;;5079422;28;20020;-72
2021/10/16 10:32:07;;;;;;;8.98;7.80;;;40.20;20.30;;;;;;5094251;28;20043;-71
2021/10/16 10:34:38;;;;;;;9.88;7.57;;;40.50;19.70;;;;;;5094133;28;20024;-73
2021/10/16 10:37:08;;;;;;;10.10;7.82;;;40.90;19.50;;;;;;5088658;28;20063;-72
2021/10/16 10:39:34;;;;;;;11.65;7.43;;;41.10;19.00;;;;;;5085483;28;20030;-72
2021/10/16 10:42:11;;;;;;;11.40;7.10;;;40.90;18.90;;;;;;5074690;28;20095;-74
2021/10/16 10:44:43;;;;;;;9.10;7.00;;;41.10;18.90;;;;;;5073887;28;20041;-72
2021/10/16 10:47:30;;;;;;;10.15;7.03;;;41.10;18.50;;;;;;5082139;28;20024;-73
2021/10/16 10:50:08;;;;;;;7.70;6.55;;;41.20;18.40;;;;;;5079526;28;20114;-71
2021/10/16 10:53:05;;;;;;;11.15;7.07;;;41.50;18.10;;;;;;5069007;28;20103;-72
2021/10/16 10:55:55;;;;;;;9.10;6.85;;;41.50;17.80;;;;;;5075276;28;20043;-72
2021/10/16 10:58:22;;;;;;;10.18;6.55;;;41.60;17.40;;;;;;5069008;28;20028;-72
2021/10/16 11:00:49;;;;;;;9.88;6.53;;;41.60;17.30;;;;;;5065881;28;20041;-72
2021/10/16 11:03:30;;;;;;;8.80;5.63;;;41.60;17.40;;;;;;5068783;28;20032;-73
2021/10/16 11:06:08;;;;;;;7.25;5.45;;;41.30;17.20;;;;;;5075827;28;20109;-70
2021/10/16 11:08:36;;;;;;;8.43;4.70;;;41.50;17.30;;;;;;5074926;28;20036;-72
2021/10/16 11:11:02;;;;;;;8.52;4.03;;;41.50;17.00;;;;;;5087029;28;20506;-73
2021/10/16 11:13:31;;;;;;;6.53;4.20;;;41.60;16.70;;;;;;5058023;28;20433;-70
2021/10/16 11:15:59;;;;;;;6.82;4.10;;;41.70;16.70;;;;;;5053521;28;20031;-72
2021/10/16 11:18:26;;;;;;;8.32;4.00;;;42.10;16.80;;;;;;5065056;28;20032;-71
2021/10/16 11:20:53;;;;;;;6.88;4.50;;;42.70;16.20;;;;;;5059634;28;20068;-72
2021/10/16 11:23:24;;;;;;;5.68;3.92;;;42.20;16.60;;;;;;5065241;28;20047;-72
2021/10/16 11:25:57;;;;;;;8.00;4.03;;;42.40;16.30;;;;;;5063412;28;20060;-71
2021/10/16 11:28:24;;;;;;;8.20;4.30;;;42.10;16.50;;;;;;5053377;28;20025;-69
2021/10/16 11:30:54;;;;;;;7.05;4.40;;;42.10;16.40;;;;;;5058032;28;20056;-69
2021/10/16 11:33:22;;;;;;;5.60;3.80;;;42.20;16.40;;;;;;5073503;28;20663;-68
2021/10/16 11:35:50;;;;;;;7.07;4.13;;;42.30;16.10;;;;;;5053114;28;20040;-67
2021/10/16 11:38:20;;;;;;;6.03;4.38;;;42.30;16.30;;;;;;5055429;28;20033;-68
2021/10/16 11:40:46;;;;;;;7.25;4.63;;;42.10;16.60;;;;;;5062884;28;20037;-68
2021/10/16 11:43:17;;;;;;;6.45;4.25;;;42.20;16.40;;;;;;5070044;28;20086;-69
2021/10/16 11:45:46;;;;;;;7.65;4.43;;;42.40;16.40;;;;;;5068608;28;20045;-69
2021/10/16 11:48:13;;;;;;;7.55;4.55;;;42.70;16.10;;;;;;5065558;28;20028;-71
2021/10/16 11:50:44;;;;;;;6.13;4.53;;;42.70;16.20;;;;;;5054039;28;20017;-71
2021/10/16 11:53:17;;;;;;;6.80;4.80;;;42.80;16.10;;;;;;5062683;28;20024;-70
2021/10/16 11:55:49;;;;;;;6.82;5.13;;;42.80;15.90;;;;;;5069087;28;20028;-70
2021/10/16 11:58:18;;;;;;;8.45;5.75;;;42.80;15.90;;;;;;5071175;28;20023;-71
2021/10/16 12:00:48;;;;;;;7.20;5.38;;;42.90;15.90;;;;;;5064458;28;20047;-70
2021/10/16 12:03:18;;;;;;;8.82;5.85;;;43.20;15.60;;;;;;5063557;28;20016;-68
2021/10/16 12:05:46;;;;;;;8.45;6.10;;;43.00;15.70;;;;;;5063353;28;20052;-68
2021/10/16 12:08:26;;;;;;;9.20;5.57;;;43.20;15.80;;;;;;5062971;28;20064;-73
2021/10/16 12:10:57;;;;;;;7.78;5.53;;;43.50;15.50;;;;;;5066603;28;20044;-70
2021/10/16 12:13:35;;;;;;;8.55;4.88;;;42.70;15.70;;;;;;5065650;28;20115;-69
2021/10/16 12:16:19;;;;;;;7.70;5.38;;;42.50;16.10;;;;;;5064675;28;20059;-67
2021/10/16 12:18:54;;;;;;;8.82;5.72;;;42.50;15.90;;;;;;5067047;28;20062;-68
2021/10/16 12:21:33;;;;;;;7.07;5.28;;;42.90;15.70;;;;;;5063724;28;20067;-68
2021/10/16 12:24:02;;;;;;;8.43;5.03;;;43.00;15.60;;;;;;5066316;28;20064;-69
2021/10/16 12:26:32;;;;;;;6.43;4.85;;;42.80;15.70;;;;;;5075807;28;20047;-69
2021/10/16 12:29:00;;;;;;;8.30;5.13;;;43.00;15.70;;;;;;5072012;28;20029;-69
2021/10/16 12:31:28;;;;;;;9.15;6.68;;;42.60;15.80;;;;;;5064012;28;20079;-69
2021/10/16 12:33:59;;;;;;;8.48;5.70;;;43.10;15.80;;;;;;5072241;28;20086;-70
2021/10/16 12:36:31;;;;;;;8.00;4.85;;;43.10;15.70;;;;;;5074559;28;20020;-69
2021/10/16 12:38:57;;;;;;;7.97;5.50;;;43.40;15.60;;;;;;5059523;28;20028;-68
2021/10/16 12:41:33;;;;;;;7.88;5.25;;;43.00;15.70;;;;;;5068447;28;20112;-71
2021/10/16 12:44:16;;;;;;;9.60;5.55;;;42.40;15.80;;;;;;5060814;28;20027;-69
2021/10/16 12:46:42;;;;;;;11.50;5.55;;;42.50;16.10;;;;;;5056122;28;20403;-68
2021/10/16 12:49:11;;;;;;;8.38;5.20;;;42.10;16.40;;;;;;5055334;28;20037;-71
2021/10/16 12:51:43;;;;;;;8.25;5.25;;;42.50;16.10;;;;;;5062877;28;20037;-70
2021/10/16 12:54:09;;;;;;;8.45;5.95;;;42.70;16.10;;;;;;5064577;28;20108;-69
2021/10/16 12:56:35;;;;;;;9.43;5.97;;;39.70;16.70;;;;;;5061277;28;20099;-69
2021/10/16 12:59:02;;;;;;;8.30;5.43;;;38.50;17.90;;;;;;5066276;28;20021;-69
2021/10/16 13:01:28;;;;;;;8.77;5.80;;;38.70;18.90;;;;;;5065871;28;20110;-69
2021/10/16 13:03:54;;;;;;;8.90;5.80;;;37.80;18.70;;;;;;5063790;28;20036;-69
2021/10/16 13:06:21;;;;;;;9.05;5.57;;;38.40;19.30;;;;;;5064969;28;20056;-70
2021/10/16 13:08:47;;;;;;;9.40;5.72;;;38.80;18.80;;;;;;5059878;28;20043;-70
2021/10/16 13:11:15;;;;;;;8.02;5.53;;;39.90;18.50;;;;;;5066355;28;20029;-69
2021/10/16 13:13:42;;;;;;;7.15;5.30;;;40.30;18.00;;;;;;5058163;28;20033;-68
2021/10/16 13:16:08;;;;;;;6.63;4.57;;;40.80;17.60;;;;;;5065556;28;20036;-68
2021/10/16 13:18:34;;;;;;;6.82;4.82;;;41.00;17.30;;;;;;5070565;28;20090;-68
2021/10/16 13:21:00;;;;;;;9.63;5.22;;;40.60;17.10;;;;;;5053749;28;20138;-68
2021/10/16 13:23:26;;;;;;;8.65;5.60;;;40.20;17.60;;;;;;5069006;28;20017;-68
2021/10/16 13:25:51;;;;;;;8.73;5.50;;;40.10;17.80;;;;;;5054949;28;20040;-68
2021/10/16 13:28:17;;;;;;;8.60;4.97;;;39.80;18.30;;;;;;5064423;28;20029;-68
2021/10/16 13:30:43;;;;;;;8.02;5.00;;;38.70;19.40;;;;;;5064927;28;20539;-67
2021/10/16 13:33:09;;;;;;;8.95;5.25;;;36.20;20.50;;;;;;5066247;28;20369;-68
2021/10/16 13:35:35;;;;;;;8.30;5.35;;;33.90;22.20;;;;;;5065056;28;20496;-67
2021/10/16 13:38:00;;;;;;;8.07;4.60;;;32.60;23.40;;;;;;5057975;28;20027;-68
2021/10/16 13:40:26;;;;;;;9.73;4.65;;;31.90;24.40;;;;;;5063631;28;20051;-70
2021/10/16 13:42:52;;;;;;;10.45;4.65;;;31.00;25.30;;;;;;5056817;28;20025;-70
2021/10/16 13:45:19;;;;;;;8.48;4.68;;;30.40;26.00;;;;;;5056955;28;20032;-70
2021/10/16 13:47:46;;;;;;;8.65;4.97;;;30.10;26.00;;;;;;5067577;28;20071;-70
2021/10/16 13:50:12;;;;;;;8.68;5.13;;;29.80;26.60;;;;;;5062793;28;20483;-70
2021/10/16 13:52:39;;;;;;;9.55;4.00;;;29.80;26.80;;;;;;5064164;28;20115;-70
2021/10/16 13:55:05;;;;;;;6.35;3.60;;;29.90;26.90;;;;;;5064834;28;20029;-71
2021/10/16 13:57:31;;;;;;;8.73;4.13;;;30.30;26.40;;;;;;5065090;28;20094;-71
2021/10/16 13:59:57;;;;;;;8.85;5.10;;;31.70;25.40;;;;;;5065881;28;20470;-71
2021/10/16 14:02:23;;;;;;;8.18;5.10;;;32.70;24.00;;;;;;5070765;28;20418;-71
2021/10/16 14:04:49;;;;;;;8.43;4.78;;;32.70;23.60;;;;;;5076500;28;20035;-70
2021/10/16 14:07:14;;;;;;;8.75;4.75;;;32.20;23.50;;;;;;5076763;28;20115;-71
2021/10/16 14:09:40;;;;;;;8.20;4.60;;;32.00;23.90;;;;;;5064664;28;20384;-71
2021/10/16 14:12:06;;;;;;;8.93;4.60;;;31.90;24.10;;;;;;5067395;28;20044;-70
2021/10/16 14:14:32;;;;;;;8.18;4.07;;;32.00;24.20;;;;;;5077307;28;20153;-71
2021/10/16 14:16:58;;;;;;;6.75;4.15;;;31.80;24.30;;;;;;5072353;28;20629;-71
2021/10/16 14:19:24;;;;;;;7.43;3.90;;;31.50;24.70;;;;;;5065447;28;20040;-70
2021/10/16 14:21:50;;;;;;;7.80;4.25;;;30.90;25.50;;;;;;5079318;28;20082;-71
2021/10/16 14:24:16;;;;;;;8.25;4.57;;;31.10;25.50;;;;;;5079598;28;20395;-71
2021/10/16 14:26:42;;;;;;;7.13;4.30;;;31.30;25.30;;;;;;5070721;28;20029;-71
2021/10/16 14:29:08;;;;;;;8.00;4.50;;;31.40;25.40;;;;;;5085216;28;20020;-71
2021/10/16 14:31:33;;;;;;;9.35;5.30;;;31.60;25.60;;;;;;5073307;28;20044;-71
2021/10/16 14:33:59;;;;;;;10.88;4.68;;;31.60;25.50;;;;;;5073169;28;20032;-71
2021/10/16 14:36:25;;;;;;;6.53;4.38;;;31.50;25.80;;;;;;5073603;28;20502;-71
2021/10/16 14:38:51;;;;;;;7.50;4.75;;;31.30;25.90;;;;;;5079064;28;20029;-70
2021/10/16 14:41:17;;;;;;;6.78;4.68;;;30.80;26.50;;;;;;5081326;28;20090;-71
2021/10/16 14:43:42;;;;;;;10.02;4.75;;;30.70;27.00;;;;;;5080270;28;20473;-70
2021/10/16 14:46:09;;;;;;;8.73;4.50;;;30.60;27.00;;;;;;5073506;28;20028;-71
2021/10/16 14:48:35;;;;;;;7.63;4.57;;;30.60;27.10;;;;;;5068972;28;20028;-71
2021/10/16 14:51:01;;;;;;;9.10;4.57;;;30.20;27.30;;;;;;5067822;28;20038;-71
2021/10/16 14:53:26;;;;;;;8.10;4.35;;;29.90;27.90;;;;;;5069687;28;20259;-71
2021/10/16 14:55:52;;;;;;;8.30;4.38;;;29.40;28.40;;;;;;5057296;28;20100;-70
2021/10/16 14:58:18;;;;;;;8.88;4.20;;;29.00;28.50;;;;;;5063415;28;20142;-70
2021/10/16 15:00:44;;;;;;;7.88;4.57;;;28.50;29.40;;;;;;5063824;28;20045;-70
2021/10/16 15:03:09;;;;;;;7.82;4.70;;;27.90;29.80;;;;;;5062427;28;20048;-70
2021/10/16 15:05:35;;;;;;;7.00;4.40;;;27.50;30.50;;;;;;5076242;28;20032;-72
2021/10/16 15:08:01;;;;;;;7.95;4.70;;;27.00;31.20;;;;;;5075962;28;20031;-69
2021/10/16 15:10:27;;;;;;;9.35;5.10;;;26.50;32.30;;;;;;5065257;28;20032;-70
2021/10/16 15:12:53;;;;;;;7.65;4.78;;;25.90;32.80;;;;;;5063338;28;20028;-70
2021/10/16 15:15:19;;;;;;;8.20;4.47;;;25.60;33.60;;;;;;5064844;28;20111;-70
2021/10/16 15:17:46;;;;;;;8.07;4.60;;;25.20;34.10;;;;;;5053899;28;20178;-72
2021/10/16 15:20:12;;;;;;;6.90;4.38;;;24.70;35.10;;;;;;5066765;28;20028;-71
2021/10/16 15:22:37;;;;;;;9.43;4.18;;;24.40;36.10;;;;;;5063889;28;20026;-71
2021/10/16 15:25:04;;;;;;;9.15;4.60;;;24.10;36.80;;;;;;5073238;28;20032;-70
2021/10/16 15:27:30;;;;;;;6.65;4.00;;;23.80;38.10;;;;;;5055595;28;20025;-70
2021/10/16 15:29:56;;;;;;;7.97;4.63;;;23.70;37.70;;;;;;5062996;28;20036;-71
2021/10/16 15:32:23;;;;;;;10.70;4.38;;;23.60;38.20;;;;;;5053987;28;22542;-70
2021/10/16 15:34:49;;;;;;;6.65;4.18;;;23.50;38.80;;;;;;5053601;28;20032;-71
2021/10/16 15:37:15;;;;;;;8.65;4.70;;;23.30;39.10;;;;;;5060726;28;20020;-73
2021/10/16 15:39:47;;;;;;;9.30;4.80;;;23.20;39.70;;;;;;5056122;28;20033;-72
2021/10/16 15:42:17;;;;;;;7.95;4.32;;;23.00;40.50;;;;;;5055084;28;20047;-71
2021/10/16 15:44:44;;;;;;;9.20;4.28;;;22.90;40.70;;;;;;5048384;28;20025;-71
2021/10/16 15:47:10;;;;;;;8.20;4.60;;;22.80;41.00;;;;;;5064180;28;20038;-70
2021/10/16 15:49:37;;;;;;;9.60;4.70;;;22.80;41.10;;;;;;5051423;28;20197;-70
2021/10/16 15:52:03;;;;;;;7.50;4.78;;;22.70;41.80;;;;;;5053700;28;20510;-69
2021/10/16 15:54:28;;;;;;;8.88;4.55;;;22.70;41.80;;;;;;5049652;28;20059;-71
2021/10/16 15:56:54;;;;;;;7.13;4.72;;;22.60;42.00;;;;;;5058572;28;20134;-71
2021/10/16 15:59:20;;;;;;;7.03;4.30;;;22.60;42.30;;;;;;5052825;28;20028;-71
2021/10/16 16:01:46;;;;;;;7.60;4.50;;;22.50;42.40;;;;;;5056503;28;20037;-71
2021/10/16 16:04:11;;;;;;;8.20;4.45;;;22.40;42.40;;;;;;5049387;28;20021;-71
2021/10/16 16:06:37;;;;;;;7.10;4.63;;;22.30;42.70;;;;;;5052003;28;20562;-70
2021/10/16 16:09:03;;;;;;;6.72;4.60;;;22.20;43.30;;;;;;5055119;28;20503;-70
2021/10/16 16:11:29;;;;;;;8.65;4.43;;;22.00;43.50;;;;;;5052762;28;20067;-70
2021/10/16 16:13:55;;;;;;;7.30;4.55;;;21.90;43.60;;;;;;5058168;28;20031;-71
2021/10/16 16:16:20;;;;;;;8.85;4.75;;;21.80;43.90;;;;;;5065432;28;20033;-71
2021/10/16 16:18:46;;;;;;;8.00;4.75;;;21.70;44.30;;;;;;5057562;28;20060;-70
2021/10/16 16:21:13;;;;;;;7.68;5.15;;;21.60;44.90;;;;;;5055652;28;20044;-70
2021/10/16 16:23:39;;;;;;;9.32;5.25;;;21.50;45.30;;;;;;5049916;28;20484;-70
2021/10/16 16:26:06;;;;;;;8.93;4.68;;;21.40;45.30;;;;;;5056526;28;20066;-70
2021/10/16 16:28:32;;;;;;;8.10;4.65;;;21.30;45.70;;;;;;5059034;28;20020;-72
2021/10/16 16:30:58;;;;;;;7.30;4.40;;;21.30;45.40;;;;;;5062401;28;20191;-71
2021/10/16 16:33:23;;;;;;;9.15;4.75;;;21.20;45.80;;;;;;5054607;28;20085;-69
2021/10/16 16:35:49;;;;;;;7.45;4.70;;;21.10;46.00;;;;;;5056988;28;20027;-70
2021/10/16 16:38:15;;;;;;;10.35;4.82;;;21.00;46.20;;;;;;5065764;28;20025;-69
2021/10/16 16:40:41;;;;;;;8.18;5.00;;;21.00;46.40;;;;;;5062482;28;20038;-69
2021/10/16 16:43:08;;;;;;;8.02;4.88;;;20.80;46.70;;;;;;5060614;28;20033;-69
2021/10/16 16:45:34;;;;;;;10.80;5.70;;;20.70;46.90;;;;;;5063774;28;20033;-69
2021/10/16 16:48:00;;;;;;;10.45;6.28;;;20.60;47.30;;;;;;5059942;28;20056;-70
2021/10/16 16:50:26;;;;;;;10.77;6.07;;;20.50;47.70;;;;;;5056841;28;20510;-70
2021/10/16 16:52:51;;;;;;;9.35;5.57;;;20.40;47.80;;;;;;5060171;28;20040;-70
2021/10/16 16:55:17;;;;;;;9.07;6.28;;;20.30;48.30;;;;;;5070491;28;20028;-70
2021/10/16 16:57:43;;;;;;;9.38;5.43;;;20.20;48.30;;;;;;5057037;28;20476;-70
2021/10/16 17:00:12;;;;;;;8.77;5.25;;;20.10;48.90;;;;;;5077532;28;20035;-69
2021/10/16 17:02:39;;;;;;;10.90;5.68;;;20.10;48.70;;;;;;5052493;28;20078;-71
2021/10/16 17:05:06;;;;;;;8.98;5.40;;;20.00;48.90;;;;;;5073064;28;20035;-72
2021/10/16 17:07:32;;;;;;;9.90;5.50;;;20.00;49.20;;;;;;5071989;28;20020;-72
2021/10/16 17:09:58;;;;;;;9.15;5.30;;;19.90;49.40;;;;;;5066527;28;20117;-72
2021/10/16 17:12:24;;;;;;;10.18;6.05;;;19.80;49.70;;;;;;5066089;28;20030;-72
2021/10/16 17:14:50;;;;;;;14.80;9.65;;;19.80;49.70;;;;;;5065157;28;20040;-72
2021/10/16 17:17:17;;;;;;;13.27;7.35;;;19.70;49.70;;;;;;5064336;28;20047;-72
2021/10/16 17:19:43;;;;;;;15.27;9.75;;;19.70;49.80;;;;;;5053114;28;20033;-70
2021/10/16 17:22:09;;;;;;;9.27;6.35;;;19.60;49.90;;;;;;5054831;28;20033;-71
2021/10/16 17:24:35;;;;;;;10.15;6.00;;;19.50;50.00;;;;;;5055392;28;20025;-71
2021/10/16 17:27:01;;;;;;;9.35;5.68;;;19.50;50.00;;;;;;5052506;28;20458;-70
2021/10/16 17:29:27;;;;;;;11.27;6.22;;;19.40;50.00;;;;;;5067734;28;20464;-70
2021/10/16 17:31:54;;;;;;;8.95;5.72;;;19.30;50.40;;;;;;5054043;28;20504;-70
2021/10/16 17:34:25;;;;;;;11.98;6.25;;;19.30;50.70;;;;;;5067643;28;20093;-71
2021/10/16 17:36:52;;;;;;;11.88;7.40;;;19.20;51.30;;;;;;5066552;28;20033;-71
2021/10/16 17:39:17;;;;;;;16.80;6.78;;;19.10;51.60;;;;;;5078855;28;20111;-71
2021/10/16 17:41:43;;;;;;;11.45;6.28;;;19.00;51.90;;;;;;5081170;28;20144;-72
2021/10/16 17:44:10;;;;;;;10.35;6.50;;;18.90;52.00;;;;;;5080128;28;20097;-71
2021/10/16 17:46:39;;;;;;;14.02;7.68;;;18.80;51.90;;;;;;5063970;28;20020;-71
2021/10/16 17:49:05;;;;;;;9.18;6.70;;;18.80;52.00;;;;;;5061242;28;20016;-71
2021/10/16 17:51:32;;;;;;;11.25;7.20;;;18.80;52.00;;;;;;5066943;28;20063;-70
2021/10/16 17:53:59;;;;;;;11.00;7.97;;;18.70;52.10;;;;;;5074147;28;20050;-71
2021/10/16 17:56:25;;;;;;;11.40;7.43;;;18.60;52.40;;;;;;5054079;28;20112;-71
2021/10/16 17:58:52;;;;;;;11.40;8.18;;;18.60;52.90;;;;;;5067893;28;20095;-70
2021/10/16 18:01:18;;;;;;;10.35;7.68;;;18.50;53.00;;;;;;5067230;28;20040;-70
2021/10/16 18:03:45;;;;;;;13.07;8.57;;;18.40;53.00;;;;;;5065020;28;20040;-70
2021/10/16 18:06:11;;;;;;;10.95;8.40;;;18.30;53.20;;;;;;5055657;28;20025;-71
2021/10/16 18:08:38;;;;;;;13.68;9.07;;;18.20;54.20;;;;;;5055499;28;20339;-70
2021/10/16 18:11:05;;;;;;;12.93;8.38;;;18.10;54.20;;;;;;5064838;28;20029;-70
2021/10/16 18:13:31;;;;;;;13.32;8.68;;;18.00;54.20;;;;;;5056260;28;20025;-70
2021/10/16 18:15:58;;;;;;;11.43;8.50;;;17.90;54.30;;;;;;5055554;28;20036;-70
2021/10/16 18:18:24;;;;;;;11.95;8.27;;;17.80;54.30;;;;;;5063749;28;20021;-71
2021/10/16 18:20:50;;;;;;;12.70;7.75;;;17.80;54.20;;;;;;5055815;28;20115;-71
2021/10/16 18:23:16;;;;;;;9.73;7.68;;;17.80;54.10;;;;;;5052154;28;20024;-71
2021/10/16 18:25:43;;;;;;;12.68;7.72;;;17.70;54.00;;;;;;5067960;28;20388;-71
2021/10/16 18:28:09;;;;;;;11.88;7.28;;;17.70;53.80;;;;;;5058685;28;20075;-70
2021/10/16 18:30:35;;;;;;;10.40;7.03;;;17.60;53.70;;;;;;5061584;28;20057;-71
2021/10/16 18:33:02;;;;;;;11.68;7.30;;;17.60;53.50;;;;;;5067103;28;20108;-70
2021/10/16 18:35:29;;;;;;;22.83;9.27;;;17.50;53.30;;;;;;5070323;28;20043;-70
2021/10/16 18:37:56;;;;;;;17.42;8.45;;;17.50;53.60;;;;;;5054231;28;20071;-70
2021/10/16 18:40:23;;;;;;;14.60;9.63;;;17.40;53.80;;;;;;5054643;28;20060;-70
2021/10/16 18:42:49;;;;;;;14.32;9.85;;;17.40;53.90;;;;;;5075246;28;20052;-70
2021/10/16 18:45:15;;;;;;;16.80;9.48;;;17.30;54.30;;;;;;5072106;28;20021;-70
2021/10/16 18:47:41;;;;;;;14.60;10.02;;;17.30;54.70;;;;;;5070087;28;20036;-71
2021/10/16 18:50:08;;;;;;;11.60;9.20;;;17.20;55.00;;;;;;5068474;28;20023;-70
2021/10/16 18:52:37;;;;;;;13.00;9.10;;;17.20;55.10;;;;;;5057916;28;20040;-71
2021/10/16 18:55:08;;;;;;;14.70;9.10;;;17.10;54.90;;;;;;5062725;28;20500;-71
2021/10/16 18:57:35;;;;;;;14.60;10.25;;;17.10;55.00;;;;;;5066617;28;20032;-70
2021/10/16 19:00:03;;;;;;;12.75;8.95;;;17.00;54.80;;;;;;5074643;28;20107;-70
2021/10/16 19:02:28;;;;;;;13.45;9.38;;;17.00;54.70;;;;;;5064749;28;20033;-70
2021/10/16 19:04:55;;;;;;;12.45;9.35;;;16.90;54.40;;;;;;5065727;28;20036;-70
2021/10/16 19:07:21;;;;;;;12.82;8.85;;;16.80;54.20;;;;;;5058092;28;20025;-70
2021/10/16 19:09:48;;;;;;;15.63;9.77;;;16.80;54.10;;;;;;5068707;28;20380;-70
2021/10/16 19:12:14;;;;;;;12.48;10.15;;;16.70;54.20;;;;;;5069618;28;20094;-70
2021/10/16 19:14:40;;;;;;;9.55;7.53;;;16.70;54.60;;;;;;5058605;28;20020;-70
2021/10/16 19:17:06;;;;;;;11.02;7.20;;;16.60;54.80;;;;;;5067272;28;20416;-70
2021/10/16 19:19:32;;;;;;;10.50;7.80;;;16.50;55.00;;;;;;5061873;28;20039;-70
2021/10/16 19:22:00;;;;;;;13.48;10.73;;;16.50;55.20;;;;;;5060278;28;20423;-70
2021/10/16 19:24:26;;;;;;;14.73;12.15;;;16.40;54.80;;;;;;5069765;28;20045;-70
2021/10/16 19:26:52;;;;;;;19.02;14.00;;;16.30;54.60;;;;;;5065886;28;20059;-70
2021/10/16 19:29:19;;;;;;;16.10;11.95;;;16.30;54.40;;;;;;5063127;28;20028;-70
2021/10/16 19:31:46;;;;;;;14.45;11.38;;;16.20;54.40;;;;;;5074646;28;20328;-70
2021/10/16 19:34:12;;;;;;;14.07;11.13;;;16.10;54.80;;;;;;5071209;28;20031;-70
2021/10/16 19:36:38;;;;;;;13.38;11.00;;;16.10;55.20;;;;;;5065940;28;20119;-70
2021/10/16 19:39:08;;;;;;;14.73;10.98;;;16.00;55.30;;;;;;5076350;28;20040;-70
2021/10/16 19:41:34;;;;;;;15.40;11.65;;;16.00;55.50;;;;;;5075139;28;20036;-70
2021/10/16 19:44:01;;;;;;;15.20;11.52;;;15.90;55.70;;;;;;5068184;28;20052;-70
2021/10/16 19:46:30;;;;;;;15.43;12.75;;;15.80;55.50;;;;;;5066040;28;20033;-70
2021/10/16 19:48:57;;;;;;;17.10;12.73;;;15.70;55.80;;;;;;5071405;28;20028;-70
2021/10/16 19:51:22;;;;;;;12.85;10.65;;;15.70;56.20;;;;;;5074265;28;20052;-69
2021/10/16 19:53:48;;;;;;;13.02;10.10;;;15.50;56.50;;;;;;5067670;28;20079;-70
2021/10/16 19:56:14;;;;;;;13.93;10.60;;;15.40;56.70;;;;;;5082915;28;20035;-71
2021/10/16 19:58:40;;;;;;;12.55;10.15;;;15.40;56.90;;;;;;5053779;28;20025;-70
2021/10/16 20:01:07;;;;;;;14.60;10.43;;;15.40;57.20;;;;;;5064509;28;20123;-70
2021/10/16 20:03:35;;;;;;;14.38;10.48;;;15.40;57.20;;;;;;5061824;28;20496;-70
2021/10/16 20:06:02;;;;;;;15.32;10.35;;;15.30;57.20;;;;;;5052635;28;20025;-70
2021/10/16 20:08:28;;;;;;;11.93;9.90;;;15.30;57.20;;;;;;5058604;28;20017;-70
2021/10/16 20:10:54;;;;;;;14.20;10.98;;;15.30;57.30;;;;;;5052935;28;20025;-70
2021/10/16 20:13:20;;;;;;;16.02;11.35;;;15.30;57.10;;;;;;5052744;28;20074;-70
2021/10/16 20:15:46;;;;;;;15.88;10.88;;;15.20;57.10;;;;;;5052536;28;20053;-70
2021/10/16 20:18:12;;;;;;;15.50;11.95;;;15.20;57.20;;;;;;5064739;28;20021;-70
2021/10/16 20:20:40;;;;;;;15.48;11.60;;;15.20;57.30;;;;;;5059141;28;20107;-70
2021/10/16 20:23:06;;;;;;;15.65;11.95;;;15.10;57.60;;;;;;5079891;28;20032;-74
2021/10/16 20:25:33;;;;;;;13.73;10.50;;;15.10;57.90;;;;;;5053570;28;20028;-74
2021/10/16 20:28:00;;;;;;;17.23;12.55;;;15.10;58.10;;;;;;5065748;28;20040;-73
2021/10/16 20:30:26;;;;;;;16.92;12.52;;;15.00;58.30;;;;;;5077909;28;20070;-73
2021/10/16 20:32:53;;;;;;;23.85;16.05;;;15.00;58.30;;;;;;5069117;28;20020;-73
2021/10/16 20:35:18;;;;;;;18.30;14.20;;;14.90;58.20;;;;;;5056762;28;20064;-72
2021/10/16 20:37:45;;;;;;;18.50;13.93;;;14.90;58.60;;;;;;5071249;28;20052;-74
2021/10/16 20:40:11;;;;;;;19.65;13.95;;;14.80;59.00;;;;;;5071622;28;20032;-74
2021/10/16 20:42:37;;;;;;;16.38;12.68;;;14.80;59.30;;;;;;5069106;28;20028;-74
2021/10/16 20:45:05;;;;;;;19.40;13.23;;;14.80;59.20;;;;;;5070237;28;20040;-74
2021/10/16 20:47:31;;;;;;;19.67;15.75;;;14.70;58.90;;;;;;5061225;28;20033;-74
2021/10/16 20:49:57;;;;;;;17.05;13.93;;;14.70;58.80;;;;;;5069891;28;20028;-74
2021/10/16 20:52:22;;;;;;;19.52;14.73;;;14.70;58.90;;;;;;5068547;28;20040;-74
2021/10/16 20:54:48;;;;;;;19.95;14.73;;;14.70;59.10;;;;;;5064828;28;20031;-74
2021/10/16 20:57:14;;;;;;;16.05;13.85;;;14.60;59.40;;;;;;5070957;28;20388;-75
2021/10/16 20:59:40;;;;;;;17.48;14.50;;;14.60;59.60;;;;;;5068640;28;20478;-74
2021/10/16 21:02:06;;;;;;;24.80;16.95;;;14.60;59.80;;;;;;5068699;28;20020;-75
2021/10/16 21:04:33;;;;;;;18.95;16.63;;;14.50;59.90;;;;;;5064230;28;20618;-75
2021/10/16 21:06:58;;;;;;;25.63;18.13;;;14.50;60.50;;;;;;5068782;28;20024;-75
2021/10/16 21:09:24;;;;;;;22.50;17.63;;;14.40;60.80;;;;;;5062603;28;20082;-75
2021/10/16 21:11:50;;;;;;;22.77;18.17;;;14.40;61.20;;;;;;5051058;28;20064;-75
2021/10/16 21:14:16;;;;;;;24.42;19.73;;;14.40;62.80;;;;;;5052217;28;20067;-75
2021/10/16 21:16:43;;;;;;;28.00;20.40;;;14.40;64.90;;;;;;5054887;28;20500;-75
2021/10/16 21:19:08;;;;;;;29.48;21.52;;;14.40;67.00;;;;;;5054070;28;20032;-75
2021/10/16 21:21:35;;;;;;;23.15;19.30;;;14.30;68.30;;;;;;5053841;28;20029;-75
2021/10/16 21:24:01;;;;;;;23.13;19.65;;;14.20;69.00;;;;;;5051244;28;20025;-75
2021/10/16 21:26:26;;;;;;;26.02;21.20;;;14.10;68.80;;;;;;5064670;28;20027;-75
2021/10/16 21:28:52;;;;;;;27.45;19.48;;;14.10;68.30;;;;;;5066065;28;20029;-75
2021/10/16 21:31:18;;;;;;;24.23;19.58;;;14.10;68.90;;;;;;5064741;28;20520;-75
2021/10/16 21:33:44;;;;;;;25.55;20.55;;;14.10;68.50;;;;;;5061597;28;20104;-75
2021/10/16 21:36:10;;;;;;;23.58;18.58;;;14.10;68.30;;;;;;5053395;28;20020;-75
2021/10/16 21:38:36;;;;;;;25.25;19.30;;;14.10;67.60;;;;;;5050423;28;20025;-75
2021/10/16 21:41:02;;;;;;;23.20;17.95;;;14.10;66.90;;;;;;5054485;28;20037;-75
2021/10/16 21:43:28;;;;;;;24.90;18.73;;;14.10;66.20;;;;;;5064915;28;20032;-74
2021/10/16 21:45:54;;;;;;;22.77;17.85;;;14.20;65.60;;;;;;5061799;28;20081;-75
2021/10/16 21:48:21;;;;;;;24.88;18.58;;;14.20;65.20;;;;;;5053545;28;20017;-75
2021/10/16 21:50:51;;;;;;;21.48;17.92;;;14.10;65.20;;;;;;5051326;28;20037;-75
2021/10/16 21:53:18;;;;;;;25.10;18.45;;;14.10;65.20;;;;;;5065130;28;20427;-75
2021/10/16 21:55:44;;;;;;;21.23;17.65;;;14.10;65.30;;;;;;5063719;28;20025;-75
2021/10/16 21:58:10;;;;;;;23.58;17.75;;;14.10;65.10;;;;;;5057297;28;20032;-75
2021/10/16 22:00:41;;;;;;;21.65;17.52;;;14.00;64.80;;;;;;5055946;28;20017;-76
2021/10/16 22:03:13;;;;;;;21.55;16.73;;;14.00;64.50;;;;;;5065367;28;20032;-76
2021/10/16 22:05:39;;;;;;;19.85;17.10;;;14.00;64.30;;;;;;5064957;28;20043;-76
2021/10/16 22:08:07;;;;;;;20.67;15.80;;;14.00;64.30;;;;;;5054027;28;20029;-76
2021/10/16 22:10:33;;;;;;;20.38;15.93;;;14.00;64.20;;;;;;5055030;28;20049;-77
2021/10/16 22:12:59;;;;;;;19.33;15.70;;;13.90;63.90;;;;;;5059867;28;20078;-77